createdAt,value
2022-12-03T00:00:14.107Z,97.45
2022-12-03T00:03:01.042Z,97.76
2022-12-03T00:05:27.841Z,97.44
2022-12-03T00:07:54.968Z,97.66
2022-12-03T00:10:21.737Z,97.65
2022-12-03T00:12:48.462Z,97.68
2022-12-03T00:15:15.248Z,97.58
2022-12-03T00:17:42.077Z,97.53
2022-12-03T00:20:19.117Z,97.34
2022-12-03T00:22:46.057Z,97.68
2022-12-03T00:25:12.732Z,97.52
2022-12-03T00:27:39.553Z,97.71
2022-12-03T00:30:08.967Z,97.71
2022-12-03T00:32:35.836Z,97.77
2022-12-03T00:35:02.618Z,97.65
2022-12-03T00:37:30.605Z,97.72
2022-12-03T00:39:57.260Z,97.77
2022-12-03T00:42:23.949Z,97.66
2022-12-03T00:44:50.781Z,97.51
2022-12-03T00:47:17.948Z,97.68
2022-12-03T00:49:44.737Z,97.76
2022-12-03T00:52:11.515Z,97.65
2022-12-03T00:54:38.329Z,97.67
2022-12-03T00:57:05.196Z,97.67
2022-12-03T00:59:31.910Z,97.76
2022-12-03T01:01:58.821Z,97.73
2022-12-03T01:04:25.671Z,97.57
2022-12-03T01:06:52.564Z,97.69
2022-12-03T01:09:19.316Z,97.69
2022-12-03T01:11:46.132Z,97.64
2022-12-03T01:14:16.491Z,97.76
2022-12-03T01:16:43.594Z,97.69
2022-12-03T01:19:15.080Z,97.70
2022-12-03T01:21:43.625Z,97.66
2022-12-03T01:24:11.150Z,97.78
2022-12-03T01:26:38.304Z,97.54
2022-12-03T01:29:06.004Z,97.75
2022-12-03T01:31:51.370Z,97.60
2022-12-03T01:34:18.172Z,97.63
2022-12-03T01:36:44.864Z,97.86
2022-12-03T01:39:11.638Z,98.00
2022-12-03T01:41:39.367Z,97.95
2022-12-03T01:44:20.728Z,97.66
2022-12-03T01:46:48.348Z,97.92
2022-12-03T01:49:20.161Z,97.60
2022-12-03T01:51:49.146Z,97.85
2022-12-03T01:54:20.112Z,97.85
2022-12-03T01:56:47.283Z,97.73
2022-12-03T01:59:19.746Z,97.80
2022-12-03T02:01:47.296Z,98.00
2022-12-03T02:04:16.580Z,98.07
2022-12-03T02:06:44.073Z,97.93
2022-12-03T02:09:13.444Z,98.04
2022-12-03T02:11:44.767Z,98.02
2022-12-03T02:14:16.097Z,98.16
2022-12-03T02:16:44.011Z,98.10
2022-12-03T02:19:26.366Z,97.96
2022-12-03T02:22:03.836Z,97.90
2022-12-03T02:24:33.962Z,98.16
2022-12-03T02:27:01.151Z,97.90
2022-12-03T02:29:27.891Z,97.95
2022-12-03T02:31:54.800Z,97.75
2022-12-03T02:34:33.880Z,97.71
2022-12-03T02:37:01.513Z,98.08
2022-12-03T02:39:28.306Z,98.09
2022-12-03T02:42:14.436Z,98.01
2022-12-03T02:44:41.313Z,97.74
2022-12-03T02:47:08.566Z,98.11
2022-12-03T02:49:35.368Z,98.22
2022-12-03T02:52:02.800Z,98.06
2022-12-03T02:54:29.591Z,98.29
2022-12-03T02:56:56.411Z,98.34
2022-12-03T02:59:23.651Z,98.27
2022-12-03T03:01:50.437Z,98.34
2022-12-03T03:04:17.424Z,98.11
2022-12-03T03:06:44.370Z,97.96
2022-12-03T03:09:11.102Z,98.07
2022-12-03T03:11:37.920Z,98.17
2022-12-03T03:14:04.772Z,97.98
2022-12-03T03:16:33.961Z,98.12
2022-12-03T03:19:01.787Z,98.22
2022-12-03T03:21:28.698Z,98.07
2022-12-03T03:23:55.416Z,97.80
2022-12-03T03:26:23.026Z,98.11
2022-12-03T03:28:51.181Z,98.15
2022-12-03T03:31:22.364Z,98.07
2022-12-03T03:33:50.264Z,98.11
2022-12-03T03:36:18.722Z,98.23
2022-12-03T03:38:45.914Z,98.16
2022-12-03T03:41:14.497Z,98.03
2022-12-03T03:43:44.273Z,98.07
2022-12-03T03:46:11.794Z,98.11
2022-12-03T03:48:41.514Z,98.14
2022-12-03T03:51:09.854Z,98.17
2022-12-03T03:53:39.998Z,98.32
2022-12-03T03:56:08.983Z,98.11
2022-12-03T03:58:36.566Z,98.30
2022-12-03T04:01:03.450Z,98.25
2022-12-03T04:03:30.352Z,98.01
2022-12-03T04:05:57.495Z,98.14
2022-12-03T04:08:24.274Z,98.32
2022-12-03T04:11:17.510Z,98.28
2022-12-03T04:13:44.647Z,98.34
2022-12-03T04:16:11.609Z,98.32
2022-12-03T04:18:44.352Z,98.30
2022-12-03T04:21:38.677Z,98.52
2022-12-03T04:24:08.263Z,98.32
2022-12-03T04:26:54.513Z,98.28
2022-12-03T04:29:22.062Z,98.37
2022-12-03T04:32:07.595Z,98.30
2022-12-03T04:34:53.300Z,98.30
2022-12-03T04:37:20.327Z,98.24
2022-12-03T04:39:47.080Z,98.27
2022-12-03T04:42:13.994Z,98.41
2022-12-03T04:44:40.840Z,98.25
2022-12-03T04:47:18.163Z,98.36
2022-12-03T04:49:47.251Z,98.41
2022-12-03T04:52:16.945Z,98.35
2022-12-03T04:54:44.165Z,98.29
2022-12-03T04:57:11.229Z,98.33
2022-12-03T04:59:38.789Z,98.24
2022-12-03T05:02:06.417Z,98.42
2022-12-03T05:04:33.588Z,98.32
2022-12-03T05:07:00.470Z,98.33
2022-12-03T05:09:27.169Z,98.44
2022-12-03T05:11:53.956Z,98.39
2022-12-03T05:14:20.711Z,98.39
2022-12-03T05:16:47.651Z,98.24
2022-12-03T05:19:14.558Z,98.45
2022-12-03T05:21:41.343Z,98.46
2022-12-03T05:24:08.095Z,98.21
2022-12-03T05:26:35.026Z,98.41
2022-12-03T05:29:01.769Z,98.36
2022-12-03T05:31:28.777Z,98.23
2022-12-03T05:33:55.597Z,98.44
2022-12-03T05:36:22.431Z,98.38
2022-12-03T05:38:49.254Z,98.28
2022-12-03T05:41:34.675Z,98.49
2022-12-03T05:44:01.433Z,98.43
2022-12-03T05:46:28.234Z,98.41
2022-12-03T05:48:55.102Z,98.36
2022-12-03T05:51:21.907Z,98.31
2022-12-03T05:53:48.687Z,98.36
2022-12-03T05:56:15.374Z,98.42
2022-12-03T05:58:42.092Z,98.48
2022-12-03T06:01:08.902Z,98.43
2022-12-03T06:03:35.715Z,98.60
2022-12-03T06:06:02.933Z,98.45
2022-12-03T06:08:29.720Z,98.36
2022-12-03T06:10:56.432Z,98.65
2022-12-03T06:13:23.171Z,98.48
2022-12-03T06:15:49.980Z,98.57
2022-12-03T06:18:16.968Z,98.45
2022-12-03T06:20:43.653Z,98.56
2022-12-03T06:23:10.330Z,98.40
2022-12-03T06:25:37.151Z,98.31
2022-12-03T06:28:04.136Z,98.62
2022-12-03T06:30:31.135Z,98.37
2022-12-03T06:32:57.911Z,98.47
2022-12-03T06:35:24.776Z,98.25
2022-12-03T06:37:51.913Z,98.24
2022-12-03T06:40:19.245Z,98.35
2022-12-03T06:42:46.263Z,98.38
2022-12-03T06:45:13.226Z,98.53
2022-12-03T06:47:40.083Z,98.77
2022-12-03T06:50:08.441Z,98.55
2022-12-03T06:52:37.571Z,98.53
2022-12-03T06:55:07.583Z,98.69
2022-12-03T06:57:34.519Z,98.58
2022-12-03T07:00:01.730Z,98.58
2022-12-03T07:02:28.704Z,98.58
2022-12-03T07:04:56.142Z,98.68
2022-12-03T07:07:23.070Z,98.45
2022-12-03T07:09:50.445Z,98.51
2022-12-03T07:12:18.538Z,98.58
2022-12-03T07:14:45.443Z,98.32
2022-12-03T07:17:12.291Z,98.36
2022-12-03T07:19:39.286Z,98.24
2022-12-03T07:22:06.281Z,98.45
2022-12-03T07:24:33.281Z,98.44
2022-12-03T07:27:00.035Z,98.60
2022-12-03T07:29:26.946Z,98.72
2022-12-03T07:31:53.774Z,98.68
2022-12-03T07:34:21.018Z,98.57
2022-12-03T07:36:47.736Z,98.58
2022-12-03T07:39:15.167Z,98.54
2022-12-03T07:41:41.862Z,98.56
2022-12-03T07:44:14.044Z,98.59
2022-12-03T07:46:42.678Z,98.58
2022-12-03T07:49:09.630Z,98.61
2022-12-03T07:51:36.496Z,98.78
2022-12-03T07:54:03.664Z,98.69
2022-12-03T07:56:33.158Z,98.79
2022-12-03T07:58:59.869Z,98.62
2022-12-03T08:01:26.734Z,98.58
2022-12-03T08:03:53.693Z,98.56
2022-12-03T08:06:20.481Z,98.62
2022-12-03T08:08:47.280Z,98.63
2022-12-03T08:11:14.801Z,98.61
2022-12-03T08:13:41.725Z,98.80
2022-12-03T08:16:19.422Z,98.55
2022-12-03T08:18:48.748Z,98.68
2022-12-03T08:21:18.075Z,98.81
2022-12-03T08:23:45.119Z,98.66
2022-12-03T08:26:23.842Z,98.73
2022-12-03T08:28:52.556Z,98.67
2022-12-03T08:31:30.903Z,98.56
2022-12-03T08:34:20.315Z,98.56
2022-12-03T08:36:50.535Z,98.69
2022-12-03T08:39:23.879Z,98.36
2022-12-03T08:42:14.630Z,98.68
2022-12-03T08:44:41.366Z,98.65
2022-12-03T08:47:08.215Z,98.59
2022-12-03T08:49:38.185Z,98.62
2022-12-03T08:52:15.126Z,98.59
2022-12-03T08:54:43.196Z,98.71
2022-12-03T08:57:30.676Z,98.58
2022-12-03T09:00:14.802Z,98.71
2022-12-03T09:02:47.090Z,98.57
2022-12-03T09:05:22.959Z,98.56
2022-12-03T09:08:08.213Z,98.57
2022-12-03T09:10:35.430Z,98.58
2022-12-03T09:13:02.301Z,98.72
2022-12-03T09:15:29.130Z,98.71
2022-12-03T09:17:56.150Z,98.63
2022-12-03T09:20:23.045Z,98.69
2022-12-03T09:22:50.043Z,98.34
2022-12-03T09:25:16.688Z,98.54
2022-12-03T09:27:43.426Z,98.42
2022-12-03T09:30:10.470Z,98.66
2022-12-03T09:32:37.351Z,98.82
2022-12-03T09:35:04.851Z,98.63
2022-12-03T09:37:31.736Z,98.57
2022-12-03T09:39:58.514Z,98.33
2022-12-03T09:42:25.686Z,98.58
2022-12-03T09:44:53.010Z,98.53
2022-12-03T09:47:20.403Z,98.63
2022-12-03T09:49:47.768Z,98.45
2022-12-03T09:52:22.984Z,98.61
2022-12-03T09:54:52.431Z,98.58
2022-12-03T09:57:19.636Z,98.64
2022-12-03T09:59:46.950Z,98.73
2022-12-03T10:02:21.211Z,98.66
2022-12-03T10:04:48.878Z,98.68
2022-12-03T10:07:16.306Z,98.50
2022-12-03T10:09:43.146Z,98.63
2022-12-03T10:12:12.678Z,98.50
2022-12-03T10:14:42.405Z,98.30
2022-12-03T10:17:11.070Z,98.32
2022-12-03T10:19:39.485Z,98.43
2022-12-03T10:22:06.256Z,98.34
2022-12-03T10:24:37.251Z,98.51
2022-12-03T10:27:22.967Z,98.40
2022-12-03T10:29:55.769Z,98.15
2022-12-03T10:32:38.478Z,98.46
2022-12-03T10:35:09.004Z,98.53
2022-12-03T10:37:36.095Z,98.22
2022-12-03T10:40:10.278Z,98.87
2022-12-03T10:42:40.718Z,98.88
2022-12-03T10:45:07.517Z,98.61
2022-12-03T10:47:34.448Z,98.38
2022-12-03T10:50:05.392Z,98.27
2022-12-03T10:52:32.317Z,98.18
2022-12-03T10:54:59.405Z,98.10
2022-12-03T10:57:26.199Z,98.43
2022-12-03T10:59:53.138Z,98.49
2022-12-03T11:02:22.865Z,98.32
2022-12-03T11:04:51.281Z,98.16
2022-12-03T11:07:20.452Z,98.35
2022-12-03T11:09:54.819Z,98.43
2022-12-03T11:12:27.486Z,98.79
2022-12-03T11:14:54.527Z,97.90
2022-12-03T11:17:50.512Z,98.17
2022-12-03T11:20:22.964Z,97.94
2022-12-03T11:22:50.084Z,98.28
2022-12-03T11:25:26.096Z,98.01
2022-12-03T11:28:11.376Z,98.52
2022-12-03T11:30:50.211Z,98.49
2022-12-03T11:33:27.949Z,98.56
2022-12-03T11:36:07.621Z,98.19
2022-12-03T11:38:37.466Z,97.86
2022-12-03T11:41:27.248Z,98.46
2022-12-03T11:43:56.797Z,98.29
2022-12-03T11:46:36.137Z,98.03
2022-12-03T11:49:22.628Z,98.27
2022-12-03T11:51:49.748Z,97.91
2022-12-03T11:54:20.968Z,97.96
2022-12-03T11:56:49.398Z,98.13
2022-12-03T11:59:17.716Z,97.81
2022-12-03T12:01:45.659Z,97.98
2022-12-03T12:04:26.812Z,98.13
2022-12-03T12:06:54.683Z,98.28
2022-12-03T12:09:51.968Z,98.47
2022-12-03T12:12:28.544Z,98.53
2022-12-03T12:14:55.474Z,98.04
2022-12-03T12:17:36.056Z,98.48
2022-12-03T12:20:26.482Z,98.17
2022-12-03T12:22:54.761Z,98.26
2022-12-03T12:25:37.250Z,97.90
2022-12-03T12:28:03.998Z,97.52
2022-12-03T12:30:30.763Z,97.89
2022-12-03T12:33:22.952Z,98.11
2022-12-03T12:35:50.477Z,97.48
2022-12-03T12:38:22.061Z,98.21
2022-12-03T12:40:49.989Z,98.20
2022-12-03T12:43:28.893Z,97.59
2022-12-03T12:46:05.554Z,97.77
2022-12-03T12:48:40.640Z,97.84
2022-12-03T12:51:13.315Z,98.14
2022-12-03T12:53:42.480Z,97.97
2022-12-03T12:56:29.758Z,98.26
2022-12-03T12:59:00.662Z,97.89
2022-12-03T13:01:31.853Z,97.75
2022-12-03T13:03:59.126Z,98.27
2022-12-03T13:06:29.616Z,97.91
2022-12-03T13:08:56.966Z,97.84
2022-12-03T13:11:36.371Z,98.04
2022-12-03T13:14:31.269Z,97.67
2022-12-03T13:17:00.876Z,97.76
2022-12-03T13:19:39.616Z,97.92
2022-12-03T13:22:21.200Z,97.98
2022-12-03T13:24:53.783Z,97.86
2022-12-03T13:27:28.049Z,97.71
2022-12-03T13:29:56.907Z,97.73
2022-12-03T13:32:32.968Z,97.68
2022-12-03T13:35:06.085Z,97.81
2022-12-03T13:37:33.380Z,97.78
2022-12-03T13:40:11.626Z,97.94
2022-12-03T13:42:38.484Z,97.80
2022-12-03T13:45:14.236Z,97.69
2022-12-03T13:47:45.707Z,97.85
2022-12-03T13:50:21.445Z,97.61
2022-12-03T13:52:48.917Z,97.98
2022-12-03T13:55:25.973Z,98.12
2022-12-03T13:57:53.697Z,97.79
2022-12-03T14:00:21.101Z,98.25
2022-12-03T14:02:48.900Z,98.26
2022-12-03T14:05:15.730Z,98.01
2022-12-03T14:07:42.454Z,97.74
2022-12-03T14:10:11.621Z,97.48
2022-12-03T14:12:38.419Z,97.70
2022-12-03T14:15:06.261Z,97.78
2022-12-03T14:17:33.136Z,97.64
2022-12-03T14:20:01.092Z,97.63
2022-12-03T14:22:28.337Z,97.61
2022-12-03T14:24:55.467Z,97.62
2022-12-03T14:27:24.137Z,97.60
2022-12-03T14:29:51.424Z,97.56
2022-12-03T14:32:18.501Z,97.71
2022-12-03T14:34:45.357Z,97.64
2022-12-03T14:37:12.208Z,97.62
2022-12-03T14:39:39.004Z,97.87
2022-12-03T14:42:14.740Z,97.47
2022-12-03T14:44:47.371Z,97.72
2022-12-03T14:47:16.477Z,97.86
2022-12-03T14:49:44.147Z,97.66
2022-12-03T14:52:12.511Z,97.81
2022-12-03T14:54:41.630Z,97.62
2022-12-03T14:57:09.298Z,97.79
2022-12-03T14:59:36.314Z,97.74
2022-12-03T15:02:03.223Z,97.70
2022-12-03T15:04:30.163Z,97.84
2022-12-03T15:06:56.913Z,97.75
2022-12-03T15:09:23.797Z,97.85
2022-12-03T15:11:50.730Z,97.85
2022-12-03T15:14:17.609Z,97.81
2022-12-03T15:16:44.659Z,98.10
2022-12-03T15:19:18.232Z,97.94
2022-12-03T15:21:45.550Z,97.91
2022-12-03T15:24:12.336Z,97.85
2022-12-03T15:26:39.572Z,98.03
2022-12-03T15:29:06.306Z,98.00
2022-12-03T15:31:33.267Z,97.99
2022-12-03T15:34:00.178Z,97.94
2022-12-03T15:36:27.285Z,98.02
2022-12-03T15:38:54.001Z,98.00
2022-12-03T15:41:21.257Z,98.13
2022-12-03T15:43:48.426Z,97.94
2022-12-03T15:46:15.257Z,98.07
2022-12-03T15:48:42.829Z,98.25
2022-12-03T15:51:09.830Z,98.11
2022-12-03T15:53:36.806Z,98.08
2022-12-03T15:56:03.752Z,98.08
2022-12-03T15:58:30.551Z,98.17
2022-12-03T16:00:57.486Z,98.35
2022-12-03T16:03:24.471Z,98.27
2022-12-03T16:05:51.200Z,98.46
2022-12-03T16:08:19.239Z,98.31
2022-12-03T16:10:46.362Z,98.13
2022-12-03T16:13:14.017Z,98.28
2022-12-03T16:15:41.286Z,98.32
2022-12-03T16:18:08.188Z,98.26
2022-12-03T16:20:34.948Z,98.19
2022-12-03T16:23:01.981Z,98.17
2022-12-03T16:25:28.674Z,98.17
2022-12-03T16:27:56.080Z,98.15
2022-12-03T16:30:24.164Z,98.23
2022-12-03T16:32:51.037Z,98.32
2022-12-03T16:35:17.881Z,98.30
2022-12-03T16:37:44.717Z,98.21
2022-12-03T16:40:11.708Z,98.37
2022-12-03T16:42:38.472Z,98.50
2022-12-03T16:45:09.604Z,98.27
2022-12-03T16:47:36.369Z,98.32
2022-12-03T16:50:06.941Z,98.45
2022-12-03T16:52:34.789Z,98.39
2022-12-03T16:55:01.648Z,98.67
2022-12-03T16:57:33.506Z,98.37
2022-12-03T17:00:00.777Z,98.42
2022-12-03T17:02:27.876Z,98.57
2022-12-03T17:04:54.661Z,98.51
2022-12-03T17:07:21.483Z,98.41
2022-12-03T17:09:48.783Z,98.52
2022-12-03T17:12:15.683Z,98.46
2022-12-03T17:14:42.416Z,98.71
2022-12-03T17:17:09.198Z,98.39
2022-12-03T17:19:35.947Z,98.63
2022-12-03T17:22:02.761Z,98.42
2022-12-03T17:24:29.818Z,98.65
2022-12-03T17:26:57.107Z,98.79
2022-12-03T17:29:24.018Z,98.64
2022-12-03T17:31:51.003Z,98.89
2022-12-03T17:34:17.817Z,98.71
2022-12-03T17:36:44.494Z,98.82
2022-12-03T17:39:11.232Z,98.85
2022-12-03T17:41:38.070Z,99.07
2022-12-03T17:44:09.643Z,99.45
2022-12-03T17:46:38.229Z,99.04
2022-12-03T17:49:05.576Z,99.21
2022-12-03T17:51:32.947Z,99.26
2022-12-03T17:54:00.632Z,99.24
2022-12-03T17:56:27.388Z,99.50
2022-12-03T17:58:54.281Z,99.38
2022-12-03T18:01:22.468Z,99.21
2022-12-03T18:03:49.189Z,99.36
2022-12-03T18:06:15.947Z,99.46
2022-12-03T18:08:42.688Z,99.34
2022-12-03T18:11:09.662Z,99.08
2022-12-03T18:13:37.060Z,99.56
2022-12-03T18:16:04.072Z,99.34
2022-12-03T18:18:30.933Z,99.46
2022-12-03T18:21:01.486Z,99.86
2022-12-03T18:23:28.559Z,99.47
2022-12-03T18:25:56.574Z,99.78
2022-12-03T18:28:23.841Z,99.75
2022-12-03T18:30:52.662Z,99.29
2022-12-03T18:33:20.800Z,99.75
2022-12-03T18:35:47.580Z,99.71
2022-12-03T18:38:17.105Z,99.84
2022-12-03T18:40:45.728Z,99.50
2022-12-03T18:43:16.569Z,99.63
2022-12-03T18:45:43.413Z,99.33
2022-12-03T18:48:19.970Z,99.66
2022-12-03T18:50:47.071Z,99.67
2022-12-03T18:53:16.850Z,99.76
2022-12-03T18:55:45.876Z,99.73
2022-12-03T18:58:12.616Z,99.50
2022-12-03T19:00:39.485Z,99.65
2022-12-03T19:03:06.799Z,99.76
2022-12-03T19:05:35.165Z,99.72
2022-12-03T19:08:02.861Z,99.45
2022-12-03T19:10:29.896Z,99.70
2022-12-03T19:12:56.885Z,99.95
2022-12-03T19:15:24.175Z,99.79
2022-12-03T19:17:51.260Z,99.86
2022-12-03T19:20:19.159Z,100.00
2022-12-03T19:22:46.084Z,99.96
2022-12-03T19:25:12.822Z,99.71
2022-12-03T19:27:39.558Z,99.96
2022-12-03T19:30:07.226Z,99.95
2022-12-03T19:32:35.707Z,99.90
2022-12-03T19:35:04.561Z,99.91
2022-12-03T19:37:33.135Z,99.80
2022-12-03T19:40:00.469Z,99.83
2022-12-03T19:42:27.492Z,99.85
2022-12-03T19:44:55.084Z,99.93
2022-12-03T19:47:24.014Z,100.00
2022-12-03T19:49:53.231Z,99.94
2022-12-03T19:52:20.561Z,99.97
2022-12-03T19:54:47.467Z,99.89
2022-12-03T19:57:21.521Z,99.80
2022-12-03T19:59:50.368Z,99.96
2022-12-03T20:02:17.265Z,100.00
2022-12-03T20:04:44.040Z,99.96
2022-12-03T20:07:11.086Z,99.89
2022-12-03T20:09:39.049Z,99.99
2022-12-03T20:12:06.058Z,99.95
2022-12-03T20:14:33.440Z,99.87
2022-12-03T20:17:00.403Z,99.95
2022-12-03T20:19:27.237Z,99.93
2022-12-03T20:21:57.703Z,99.87
2022-12-03T20:24:27.665Z,99.95
2022-12-03T20:26:54.326Z,99.95
2022-12-03T20:29:21.535Z,99.94
2022-12-03T20:31:48.228Z,100.00
2022-12-03T20:34:15.021Z,100.00
2022-12-03T20:36:43.624Z,99.96
2022-12-03T20:39:10.384Z,99.97
2022-12-03T20:41:37.452Z,100.00
2022-12-03T20:44:06.962Z,100.00
2022-12-03T20:46:33.728Z,100.00
2022-12-03T20:49:00.555Z,99.88
2022-12-03T20:51:29.737Z,99.97
2022-12-03T20:53:58.012Z,99.96
2022-12-03T20:56:33.961Z,99.99
2022-12-03T20:59:07.054Z,100.00
2022-12-03T21:01:35.372Z,99.97
2022-12-03T21:04:03.777Z,99.97
2022-12-03T21:06:31.069Z,99.95
2022-12-03T21:08:58.599Z,99.99
2022-12-03T21:11:29.149Z,100.00
2022-12-03T21:13:57.752Z,99.96
2022-12-03T21:16:46.026Z,100.00
2022-12-03T21:19:16.983Z,99.97
2022-12-03T21:21:43.816Z,99.98
2022-12-03T21:24:12.753Z,100.00
2022-12-03T21:26:40.989Z,100.00
2022-12-03T21:29:08.131Z,100.00
2022-12-03T21:31:37.006Z,99.97
2022-12-03T21:34:04.489Z,100.00
2022-12-03T21:36:31.551Z,99.98
2022-12-03T21:38:58.297Z,100.00
2022-12-03T21:41:25.235Z,100.00
2022-12-03T21:43:52.110Z,100.00
2022-12-03T21:47:12.529Z,100.00
2022-12-03T21:49:05.527Z,100.00
2022-12-03T21:51:32.733Z,100.00
2022-12-03T21:53:59.460Z,100.00
2022-12-03T21:56:26.484Z,100.00
2022-12-03T21:58:54.258Z,100.00
2022-12-03T22:01:23.686Z,100.00
2022-12-03T22:03:50.944Z,100.00
2022-12-03T22:06:18.893Z,100.00
2022-12-03T22:08:45.850Z,100.00
2022-12-03T22:11:18.198Z,100.00
2022-12-03T22:13:45.939Z,100.00
2022-12-03T22:16:16.279Z,100.00
2022-12-03T22:18:44.047Z,100.00
2022-12-03T22:21:13.804Z,100.00
2022-12-03T22:23:41.043Z,100.00
2022-12-03T22:26:11.187Z,100.00
2022-12-03T22:28:42.881Z,100.00
2022-12-03T22:31:10.623Z,100.00
2022-12-03T22:33:37.703Z,100.00
2022-12-03T22:36:21.599Z,100.00
2022-12-03T22:38:50.101Z,100.00
2022-12-03T22:41:17.471Z,100.00
2022-12-03T22:43:45.004Z,99.96
2022-12-03T22:46:11.920Z,100.00
2022-12-03T22:48:40.081Z,99.98
2022-12-03T22:51:13.310Z,99.97
2022-12-03T22:53:40.108Z,100.00
2022-12-03T22:56:07.267Z,100.00
2022-12-03T22:58:34.019Z,100.00
2022-12-03T23:01:03.086Z,100.00
2022-12-03T23:03:30.428Z,99.98
2022-12-03T23:05:57.719Z,100.00
2022-12-03T23:08:24.503Z,100.00
2022-12-03T23:10:52.499Z,100.00
2022-12-03T23:13:20.072Z,100.00
2022-12-03T23:15:51.872Z,99.98
2022-12-03T23:18:19.464Z,99.99
2022-12-03T23:20:48.830Z,100.00
2022-12-03T23:23:17.314Z,100.00
2022-12-03T23:25:44.583Z,100.00
2022-12-03T23:28:11.906Z,100.00
2022-12-03T23:30:39.393Z,100.00
2022-12-03T23:33:06.205Z,100.00
2022-12-03T23:35:33.157Z,100.00
2022-12-03T23:37:59.893Z,100.00
2022-12-03T23:40:26.628Z,100.00
2022-12-03T23:42:53.572Z,100.00
2022-12-03T23:45:20.323Z,100.00
2022-12-03T23:47:46.991Z,100.00
2022-12-03T23:50:13.729Z,100.00
2022-12-03T23:52:40.507Z,100.00
2022-12-03T23:55:07.558Z,100.00
2022-12-03T23:57:34.219Z,100.00
